Terminal Aerodrome Forecast
Issued by NWS

Home | Current Version | Previous Version | Text Only | Print | Product List | Glossary On
Versions: 1 2 3 4 5 6 7 8 9 10 11 12 13 14
000
FTUS45 KGJT 232336
TAFDRO
TAF
KDRO 232336Z 2400/2424 21007KT P6SM SCT140 BKN250
     FM240500 25010KT P6SM SCT120 BKN250 WS020/25040KT
     FM241000 VRB03KT P6SM FEW110 BKN200
     FM241700 26012KT P6SM SCT090 BKN150
     FM241800 24015G25KT P6SM BKN090=

USA.gov is the U.S. government's official web portal to all federal, state and local government web resources and services.